sensor_id;sensor_type;location;lat;lon;timestamp;temperature;humidity
14798;DHT22;7490;63.708;20.368;2022-07-23T00:01:32;19.50;64.20
14798;DHT22;7490;63.708;20.368;2022-07-23T00:03:58;19.40;64.10
14798;DHT22;7490;63.708;20.368;2022-07-23T00:06:24;19.40;64.20
14798;DHT22;7490;63.708;20.368;2022-07-23T00:08:50;19.40;64.30
14798;DHT22;7490;63.708;20.368;2022-07-23T00:11:15;19.40;64.40
14798;DHT22;7490;63.708;20.368;2022-07-23T00:13:41;19.40;64.50
14798;DHT22;7490;63.708;20.368;2022-07-23T00:16:07;19.30;64.60
14798;DHT22;7490;63.708;20.368;2022-07-23T00:18:33;19.30;64.70
14798;DHT22;7490;63.708;20.368;2022-07-23T00:20:59;19.30;64.80
14798;DHT22;7490;63.708;20.368;2022-07-23T00:23:25;19.30;64.90
14798;DHT22;7490;63.708;20.368;2022-07-23T00:25:51;19.20;64.90
14798;DHT22;7490;63.708;20.368;2022-07-23T00:28:18;19.20;64.90
14798;DHT22;7490;63.708;20.368;2022-07-23T00:30:46;19.20;64.60
14798;DHT22;7490;63.708;20.368;2022-07-23T00:33:13;19.20;64.30
14798;DHT22;7490;63.708;20.368;2022-07-23T00:35:40;19.10;64.00
14798;DHT22;7490;63.708;20.368;2022-07-23T00:38:07;19.10;63.90
14798;DHT22;7490;63.708;20.368;2022-07-23T00:40:35;19.10;63.70
14798;DHT22;7490;63.708;20.368;2022-07-23T00:43:01;19.10;63.50
14798;DHT22;7490;63.708;20.368;2022-07-23T00:45:28;19.00;63.40
14798;DHT22;7490;63.708;20.368;2022-07-23T00:47:53;19.00;63.40
14798;DHT22;7490;63.708;20.368;2022-07-23T00:50:19;19.00;63.30
14798;DHT22;7490;63.708;20.368;2022-07-23T00:52:45;19.00;63.20
14798;DHT22;7490;63.708;20.368;2022-07-23T00:55:12;19.00;63.10
14798;DHT22;7490;63.708;20.368;2022-07-23T00:57:38;19.00;62.90
14798;DHT22;7490;63.708;20.368;2022-07-23T01:00:06;19.00;62.80
14798;DHT22;7490;63.708;20.368;2022-07-23T01:02:32;18.90;62.70
14798;DHT22;7490;63.708;20.368;2022-07-23T01:04:58;18.90;62.50
14798;DHT22;7490;63.708;20.368;2022-07-23T01:07:23;18.90;62.50
14798;DHT22;7490;63.708;20.368;2022-07-23T01:09:51;18.90;62.50
14798;DHT22;7490;63.708;20.368;2022-07-23T01:12:17;18.90;62.50
14798;DHT22;7490;63.708;20.368;2022-07-23T01:14:43;18.90;62.50
14798;DHT22;7490;63.708;20.368;2022-07-23T01:17:09;18.90;62.40
14798;DHT22;7490;63.708;20.368;2022-07-23T01:19:34;18.90;62.50
14798;DHT22;7490;63.708;20.368;2022-07-23T01:22:02;18.90;62.50
14798;DHT22;7490;63.708;20.368;2022-07-23T01:24:28;18.90;62.60
14798;DHT22;7490;63.708;20.368;2022-07-23T01:26:54;18.90;62.50
14798;DHT22;7490;63.708;20.368;2022-07-23T01:29:20;18.80;62.40
14798;DHT22;7490;63.708;20.368;2022-07-23T01:31:46;18.80;62.40
14798;DHT22;7490;63.708;20.368;2022-07-23T01:34:12;18.80;62.40
14798;DHT22;7490;63.708;20.368;2022-07-23T01:36:39;18.80;62.50
14798;DHT22;7490;63.708;20.368;2022-07-23T01:39:06;18.80;62.50
14798;DHT22;7490;63.708;20.368;2022-07-23T01:41:33;18.70;62.50
14798;DHT22;7490;63.708;20.368;2022-07-23T01:43:58;18.70;62.50
14798;DHT22;7490;63.708;20.368;2022-07-23T01:46:24;18.70;62.70
14798;DHT22;7490;63.708;20.368;2022-07-23T01:48:50;18.70;62.80
14798;DHT22;7490;63.708;20.368;2022-07-23T01:51:16;18.70;62.80
14798;DHT22;7490;63.708;20.368;2022-07-23T01:53:41;18.70;62.80
14798;DHT22;7490;63.708;20.368;2022-07-23T01:56:07;18.70;62.90
14798;DHT22;7490;63.708;20.368;2022-07-23T01:58:33;18.70;63.10
14798;DHT22;7490;63.708;20.368;2022-07-23T02:00:59;18.60;63.20
14798;DHT22;7490;63.708;20.368;2022-07-23T02:03:25;18.60;63.50
14798;DHT22;7490;63.708;20.368;2022-07-23T02:05:51;18.60;63.70
14798;DHT22;7490;63.708;20.368;2022-07-23T02:08:17;18.60;63.80
14798;DHT22;7490;63.708;20.368;2022-07-23T02:10:43;18.60;63.90
14798;DHT22;7490;63.708;20.368;2022-07-23T02:13:09;18.60;64.00
14798;DHT22;7490;63.708;20.368;2022-07-23T02:15:35;18.50;64.00
14798;DHT22;7490;63.708;20.368;2022-07-23T02:18:00;18.50;64.10
14798;DHT22;7490;63.708;20.368;2022-07-23T02:20:26;18.50;64.30
14798;DHT22;7490;63.708;20.368;2022-07-23T02:22:52;18.40;64.40
14798;DHT22;7490;63.708;20.368;2022-07-23T02:25:18;18.40;64.40
14798;DHT22;7490;63.708;20.368;2022-07-23T02:27:43;18.40;64.50
14798;DHT22;7490;63.708;20.368;2022-07-23T02:30:09;18.40;64.60
14798;DHT22;7490;63.708;20.368;2022-07-23T02:32:36;18.30;64.50
14798;DHT22;7490;63.708;20.368;2022-07-23T02:35:03;18.30;64.60
14798;DHT22;7490;63.708;20.368;2022-07-23T02:37:29;18.30;64.60
14798;DHT22;7490;63.708;20.368;2022-07-23T02:39:55;18.30;64.50
14798;DHT22;7490;63.708;20.368;2022-07-23T02:42:20;18.30;64.40
14798;DHT22;7490;63.708;20.368;2022-07-23T02:44:46;18.30;64.30
14798;DHT22;7490;63.708;20.368;2022-07-23T02:47:12;18.30;64.30
14798;DHT22;7490;63.708;20.368;2022-07-23T02:49:37;18.30;64.30
14798;DHT22;7490;63.708;20.368;2022-07-23T02:52:03;18.30;64.30
14798;DHT22;7490;63.708;20.368;2022-07-23T02:54:29;18.30;64.20
14798;DHT22;7490;63.708;20.368;2022-07-23T02:56:55;18.30;64.10
14798;DHT22;7490;63.708;20.368;2022-07-23T02:59:20;18.30;64.00
14798;DHT22;7490;63.708;20.368;2022-07-23T03:01:47;18.30;63.90
14798;DHT22;7490;63.708;20.368;2022-07-23T03:04:12;18.30;64.00
14798;DHT22;7490;63.708;20.368;2022-07-23T03:06:38;18.40;64.10
14798;DHT22;7490;63.708;20.368;2022-07-23T03:09:05;18.40;64.00
14798;DHT22;7490;63.708;20.368;2022-07-23T03:11:30;18.40;63.90
14798;DHT22;7490;63.708;20.368;2022-07-23T03:13:56;18.40;63.80
14798;DHT22;7490;63.708;20.368;2022-07-23T03:16:22;18.40;63.90
14798;DHT22;7490;63.708;20.368;2022-07-23T03:18:48;18.40;63.90
14798;DHT22;7490;63.708;20.368;2022-07-23T03:21:14;18.40;63.80
14798;DHT22;7490;63.708;20.368;2022-07-23T03:23:40;18.50;63.60
14798;DHT22;7490;63.708;20.368;2022-07-23T03:26:05;18.50;63.40
14798;DHT22;7490;63.708;20.368;2022-07-23T03:28:31;18.40;63.20
14798;DHT22;7490;63.708;20.368;2022-07-23T03:30:57;18.40;63.20
14798;DHT22;7490;63.708;20.368;2022-07-23T03:33:22;18.40;63.20
14798;DHT22;7490;63.708;20.368;2022-07-23T03:35:48;18.40;63.30
14798;DHT22;7490;63.708;20.368;2022-07-23T03:38:14;18.40;63.30
14798;DHT22;7490;63.708;20.368;2022-07-23T03:40:40;18.40;63.10
14798;DHT22;7490;63.708;20.368;2022-07-23T03:43:06;18.40;63.00
14798;DHT22;7490;63.708;20.368;2022-07-23T03:45:32;18.40;63.00
14798;DHT22;7490;63.708;20.368;2022-07-23T03:47:58;18.30;62.90
14798;DHT22;7490;63.708;20.368;2022-07-23T03:50:24;18.40;63.00
14798;DHT22;7490;63.708;20.368;2022-07-23T03:52:50;18.40;63.00
14798;DHT22;7490;63.708;20.368;2022-07-23T03:55:16;18.40;62.80
14798;DHT22;7490;63.708;20.368;2022-07-23T03:57:43;18.40;62.80
14798;DHT22;7490;63.708;20.368;2022-07-23T04:00:10;18.40;62.80
14798;DHT22;7490;63.708;20.368;2022-07-23T04:02:37;18.40;62.80
14798;DHT22;7490;63.708;20.368;2022-07-23T04:05:04;18.50;63.00
14798;DHT22;7490;63.708;20.368;2022-07-23T04:07:29;18.60;62.80
14798;DHT22;7490;63.708;20.368;2022-07-23T04:09:55;18.60;62.70
14798;DHT22;7490;63.708;20.368;2022-07-23T04:12:21;18.70;62.50
14798;DHT22;7490;63.708;20.368;2022-07-23T04:14:47;18.70;62.50
14798;DHT22;7490;63.708;20.368;2022-07-23T04:17:12;18.70;62.40
14798;DHT22;7490;63.708;20.368;2022-07-23T04:19:38;18.80;62.10
14798;DHT22;7490;63.708;20.368;2022-07-23T04:22:12;18.80;62.00
14798;DHT22;7490;63.708;20.368;2022-07-23T04:24:38;18.80;62.00
14798;DHT22;7490;63.708;20.368;2022-07-23T04:27:04;18.80;61.80
14798;DHT22;7490;63.708;20.368;2022-07-23T04:29:30;18.80;61.70
14798;DHT22;7490;63.708;20.368;2022-07-23T04:31:56;18.70;61.80
14798;DHT22;7490;63.708;20.368;2022-07-23T04:34:21;18.70;61.90
14798;DHT22;7490;63.708;20.368;2022-07-23T04:36:47;18.70;61.70
14798;DHT22;7490;63.708;20.368;2022-07-23T04:39:14;18.70;61.60
14798;DHT22;7490;63.708;20.368;2022-07-23T04:41:39;18.70;61.30
14798;DHT22;7490;63.708;20.368;2022-07-23T04:44:05;18.60;61.30
14798;DHT22;7490;63.708;20.368;2022-07-23T04:46:31;18.60;61.40
14798;DHT22;7490;63.708;20.368;2022-07-23T04:48:57;18.50;61.50
14798;DHT22;7490;63.708;20.368;2022-07-23T04:51:22;18.50;61.60
14798;DHT22;7490;63.708;20.368;2022-07-23T04:53:48;18.50;61.50
14798;DHT22;7490;63.708;20.368;2022-07-23T04:56:14;18.50;61.30
14798;DHT22;7490;63.708;20.368;2022-07-23T04:58:39;18.50;61.40
14798;DHT22;7490;63.708;20.368;2022-07-23T05:01:05;18.60;61.40
14798;DHT22;7490;63.708;20.368;2022-07-23T05:03:31;18.60;61.10
14798;DHT22;7490;63.708;20.368;2022-07-23T05:05:56;18.60;60.90
14798;DHT22;7490;63.708;20.368;2022-07-23T05:08:22;18.70;60.80
14798;DHT22;7490;63.708;20.368;2022-07-23T05:10:48;18.70;60.80
14798;DHT22;7490;63.708;20.368;2022-07-23T05:13:17;18.80;60.80
14798;DHT22;7490;63.708;20.368;2022-07-23T05:15:44;18.90;60.50
14798;DHT22;7490;63.708;20.368;2022-07-23T05:18:10;19.00;60.50
14798;DHT22;7490;63.708;20.368;2022-07-23T05:20:36;19.20;60.40
14798;DHT22;7490;63.708;20.368;2022-07-23T05:23:02;19.30;59.60
14798;DHT22;7490;63.708;20.368;2022-07-23T05:25:28;19.40;59.30
14798;DHT22;7490;63.708;20.368;2022-07-23T05:27:54;19.60;59.30
14798;DHT22;7490;63.708;20.368;2022-07-23T05:30:19;19.70;58.90
14798;DHT22;7490;63.708;20.368;2022-07-23T05:32:45;19.80;58.70
14798;DHT22;7490;63.708;20.368;2022-07-23T05:35:11;20.00;58.40
14798;DHT22;7490;63.708;20.368;2022-07-23T05:37:37;20.20;58.40
14798;DHT22;7490;63.708;20.368;2022-07-23T05:40:04;20.40;58.00
14798;DHT22;7490;63.708;20.368;2022-07-23T05:42:33;20.70;57.70
14798;DHT22;7490;63.708;20.368;2022-07-23T05:44:58;21.50;57.40
14798;DHT22;7490;63.708;20.368;2022-07-23T05:47:24;22.40;55.80
14798;DHT22;7490;63.708;20.368;2022-07-23T05:49:50;23.40;54.80
14798;DHT22;7490;63.708;20.368;2022-07-23T05:52:15;24.80;52.40
14798;DHT22;7490;63.708;20.368;2022-07-23T05:54:41;25.60;50.40
14798;DHT22;7490;63.708;20.368;2022-07-23T05:57:07;26.00;49.50
14798;DHT22;7490;63.708;20.368;2022-07-23T05:59:32;27.00;48.70
14798;DHT22;7490;63.708;20.368;2022-07-23T06:01:58;28.10;47.00
14798;DHT22;7490;63.708;20.368;2022-07-23T06:04:24;29.20;45.10
14798;DHT22;7490;63.708;20.368;2022-07-23T06:06:50;29.70;43.10
14798;DHT22;7490;63.708;20.368;2022-07-23T06:09:15;29.40;41.60
14798;DHT22;7490;63.708;20.368;2022-07-23T06:11:41;28.70;41.70
14798;DHT22;7490;63.708;20.368;2022-07-23T06:14:07;28.10;42.10
14798;DHT22;7490;63.708;20.368;2022-07-23T06:16:32;27.60;42.40
14798;DHT22;7490;63.708;20.368;2022-07-23T06:18:58;27.20;42.90
14798;DHT22;7490;63.708;20.368;2022-07-23T06:21:24;27.00;42.50
14798;DHT22;7490;63.708;20.368;2022-07-23T06:23:49;27.10;43.00
14798;DHT22;7490;63.708;20.368;2022-07-23T06:26:15;27.40;42.50
14798;DHT22;7490;63.708;20.368;2022-07-23T06:28:40;28.00;42.00
14798;DHT22;7490;63.708;20.368;2022-07-23T06:31:06;28.90;41.30
14798;DHT22;7490;63.708;20.368;2022-07-23T06:33:33;29.70;40.00
14798;DHT22;7490;63.708;20.368;2022-07-23T06:35:59;30.00;38.30
14798;DHT22;7490;63.708;20.368;2022-07-23T06:38:24;29.60;38.00
14798;DHT22;7490;63.708;20.368;2022-07-23T06:40:50;29.00;38.30
14798;DHT22;7490;63.708;20.368;2022-07-23T06:43:16;28.50;38.90
14798;DHT22;7490;63.708;20.368;2022-07-23T06:45:41;27.80;38.90
14798;DHT22;7490;63.708;20.368;2022-07-23T06:48:07;27.20;39.10
14798;DHT22;7490;63.708;20.368;2022-07-23T06:50:33;26.40;39.60
14798;DHT22;7490;63.708;20.368;2022-07-23T06:52:58;25.80;40.30
14798;DHT22;7490;63.708;20.368;2022-07-23T06:55:24;25.30;40.50
14798;DHT22;7490;63.708;20.368;2022-07-23T06:57:50;24.70;41.20
14798;DHT22;7490;63.708;20.368;2022-07-23T07:00:15;24.10;42.10
14798;DHT22;7490;63.708;20.368;2022-07-23T07:02:41;23.70;42.80
14798;DHT22;7490;63.708;20.368;2022-07-23T07:05:07;23.40;43.50
14798;DHT22;7490;63.708;20.368;2022-07-23T07:07:34;23.10;44.00
14798;DHT22;7490;63.708;20.368;2022-07-23T07:10:00;22.90;44.60
14798;DHT22;7490;63.708;20.368;2022-07-23T07:12:25;22.80;45.10
14798;DHT22;7490;63.708;20.368;2022-07-23T07:14:51;22.70;45.40
14798;DHT22;7490;63.708;20.368;2022-07-23T07:17:16;22.60;45.60
14798;DHT22;7490;63.708;20.368;2022-07-23T07:19:42;22.50;46.00
14798;DHT22;7490;63.708;20.368;2022-07-23T07:22:08;22.80;46.70
14798;DHT22;7490;63.708;20.368;2022-07-23T07:24:33;23.60;46.60
14798;DHT22;7490;63.708;20.368;2022-07-23T07:26:59;25.00;45.30
14798;DHT22;7490;63.708;20.368;2022-07-23T07:29:25;26.80;43.50
14798;DHT22;7490;63.708;20.368;2022-07-23T07:31:51;28.20;41.30
14798;DHT22;7490;63.708;20.368;2022-07-23T07:34:16;29.00;40.10
14798;DHT22;7490;63.708;20.368;2022-07-23T07:36:42;29.80;38.90
14798;DHT22;7490;63.708;20.368;2022-07-23T07:39:08;30.40;37.60
14798;DHT22;7490;63.708;20.368;2022-07-23T07:41:36;31.30;37.20
14798;DHT22;7490;63.708;20.368;2022-07-23T07:44:01;32.70;36.40
14798;DHT22;7490;63.708;20.368;2022-07-23T07:46:27;33.80;34.40
14798;DHT22;7490;63.708;20.368;2022-07-23T07:48:53;34.80;33.10
14798;DHT22;7490;63.708;20.368;2022-07-23T07:51:19;35.60;32.30
14798;DHT22;7490;63.708;20.368;2022-07-23T07:53:45;36.60;31.50
14798;DHT22;7490;63.708;20.368;2022-07-23T07:56:11;37.70;30.50
14798;DHT22;7490;63.708;20.368;2022-07-23T07:58:36;38.60;29.90
14798;DHT22;7490;63.708;20.368;2022-07-23T08:01:02;39.40;29.00
14798;DHT22;7490;63.708;20.368;2022-07-23T08:03:28;40.10;28.20
14798;DHT22;7490;63.708;20.368;2022-07-23T08:05:54;40.60;27.50
14798;DHT22;7490;63.708;20.368;2022-07-23T08:08:20;41.00;26.50
14798;DHT22;7490;63.708;20.368;2022-07-23T08:10:45;40.70;26.00
14798;DHT22;7490;63.708;20.368;2022-07-23T08:13:16;40.20;26.10
14798;DHT22;7490;63.708;20.368;2022-07-23T08:15:43;40.10;26.10
14798;DHT22;7490;63.708;20.368;2022-07-23T08:18:09;40.40;26.40
14798;DHT22;7490;63.708;20.368;2022-07-23T08:20:35;40.80;26.10
14798;DHT22;7490;63.708;20.368;2022-07-23T08:23:06;41.10;25.70
14798;DHT22;7490;63.708;20.368;2022-07-23T08:25:38;41.20;25.10
14798;DHT22;7490;63.708;20.368;2022-07-23T08:28:06;41.10;25.20
14798;DHT22;7490;63.708;20.368;2022-07-23T08:30:33;41.20;25.60
14798;DHT22;7490;63.708;20.368;2022-07-23T08:33:03;41.60;25.50
14798;DHT22;7490;63.708;20.368;2022-07-23T08:35:40;42.00;25.10
14798;DHT22;7490;63.708;20.368;2022-07-23T08:38:08;42.30;24.90
14798;DHT22;7490;63.708;20.368;2022-07-23T08:40:40;42.80;25.00
14798;DHT22;7490;63.708;20.368;2022-07-23T08:43:07;43.10;24.80
14798;DHT22;7490;63.708;20.368;2022-07-23T08:45:42;43.30;24.30
14798;DHT22;7490;63.708;20.368;2022-07-23T08:48:12;43.30;24.30
14798;DHT22;7490;63.708;20.368;2022-07-23T08:50:42;43.30;24.30
14798;DHT22;7490;63.708;20.368;2022-07-23T08:53:08;43.50;24.20
14798;DHT22;7490;63.708;20.368;2022-07-23T08:55:34;43.80;24.10
14798;DHT22;7490;63.708;20.368;2022-07-23T08:58:00;43.90;23.90
14798;DHT22;7490;63.708;20.368;2022-07-23T09:00:26;44.00;23.80
14798;DHT22;7490;63.708;20.368;2022-07-23T09:02:52;44.10;23.60
14798;DHT22;7490;63.708;20.368;2022-07-23T09:05:18;44.10;23.50
14798;DHT22;7490;63.708;20.368;2022-07-23T09:10:28;44.20;23.20
14798;DHT22;7490;63.708;20.368;2022-07-23T09:12:54;44.20;23.50
14798;DHT22;7490;63.708;20.368;2022-07-23T09:15:20;44.10;23.40
14798;DHT22;7490;63.708;20.368;2022-07-23T09:17:46;43.90;23.40
14798;DHT22;7490;63.708;20.368;2022-07-23T09:20:14;43.90;23.40
14798;DHT22;7490;63.708;20.368;2022-07-23T09:22:45;44.00;23.40
14798;DHT22;7490;63.708;20.368;2022-07-23T09:25:18;44.10;23.10
14798;DHT22;7490;63.708;20.368;2022-07-23T09:30:16;44.30;23.00
14798;DHT22;7490;63.708;20.368;2022-07-23T09:32:42;44.30;22.90
14798;DHT22;7490;63.708;20.368;2022-07-23T09:35:08;44.20;22.80
14798;DHT22;7490;63.708;20.368;2022-07-23T09:37:34;44.20;22.90
14798;DHT22;7490;63.708;20.368;2022-07-23T09:40:08;44.20;22.80
14798;DHT22;7490;63.708;20.368;2022-07-23T09:42:37;44.20;22.50
14798;DHT22;7490;63.708;20.368;2022-07-23T09:45:03;44.10;22.70
14798;DHT22;7490;63.708;20.368;2022-07-23T09:47:31;44.10;22.60
14798;DHT22;7490;63.708;20.368;2022-07-23T09:50:08;44.10;22.60
14798;DHT22;7490;63.708;20.368;2022-07-23T09:52:43;44.10;22.50
14798;DHT22;7490;63.708;20.368;2022-07-23T09:55:09;43.90;22.50
14798;DHT22;7490;63.708;20.368;2022-07-23T09:57:35;43.80;22.70
14798;DHT22;7490;63.708;20.368;2022-07-23T10:00:05;43.80;22.70
14798;DHT22;7490;63.708;20.368;2022-07-23T10:02:35;43.80;22.60
14798;DHT22;7490;63.708;20.368;2022-07-23T10:05:02;43.80;22.60
14798;DHT22;7490;63.708;20.368;2022-07-23T10:07:31;43.60;22.60
14798;DHT22;7490;63.708;20.368;2022-07-23T10:09:59;43.60;22.60
14798;DHT22;7490;63.708;20.368;2022-07-23T10:12:25;43.60;22.60
14798;DHT22;7490;63.708;20.368;2022-07-23T10:15:10;43.40;22.60
14798;DHT22;7490;63.708;20.368;2022-07-23T10:17:36;43.00;22.80
14798;DHT22;7490;63.708;20.368;2022-07-23T10:20:03;42.70;23.00
14798;DHT22;7490;63.708;20.368;2022-07-23T10:22:31;42.60;23.00
14798;DHT22;7490;63.708;20.368;2022-07-23T10:25:20;42.20;23.10
14798;DHT22;7490;63.708;20.368;2022-07-23T10:39:22;42.70;23.50
14798;DHT22;7490;63.708;20.368;2022-07-23T10:41:50;42.70;23.30
14798;DHT22;7490;63.708;20.368;2022-07-23T10:44:21;42.30;23.20
14798;DHT22;7490;63.708;20.368;2022-07-23T10:47:03;41.80;23.20
14798;DHT22;7490;63.708;20.368;2022-07-23T10:49:33;41.30;23.10
14798;DHT22;7490;63.708;20.368;2022-07-23T10:57:50;39.80;23.80
14798;DHT22;7490;63.708;20.368;2022-07-23T11:00:27;38.70;24.30
14798;DHT22;7490;63.708;20.368;2022-07-23T11:02:56;37.80;24.90
14798;DHT22;7490;63.708;20.368;2022-07-23T11:05:41;36.90;25.50
14798;DHT22;7490;63.708;20.368;2022-07-23T11:10:40;35.70;26.50
14798;DHT22;7490;63.708;20.368;2022-07-23T11:24:00;32.40;29.00
14798;DHT22;7490;63.708;20.368;2022-07-23T11:36:57;27.30;35.10
14798;DHT22;7490;63.708;20.368;2022-07-23T11:39:26;26.60;36.30
14798;DHT22;7490;63.708;20.368;2022-07-23T11:41:53;26.10;36.10
14798;DHT22;7490;63.708;20.368;2022-07-23T11:44:32;25.60;36.70
14798;DHT22;7490;63.708;20.368;2022-07-23T11:47:09;25.20;37.50
14798;DHT22;7490;63.708;20.368;2022-07-23T11:49:36;24.90;37.90
14798;DHT22;7490;63.708;20.368;2022-07-23T11:52:13;24.60;38.40
14798;DHT22;7490;63.708;20.368;2022-07-23T11:54:58;24.50;39.20
14798;DHT22;7490;63.708;20.368;2022-07-23T11:57:33;24.20;39.50
14798;DHT22;7490;63.708;20.368;2022-07-23T12:00:20;24.00;39.80
14798;DHT22;7490;63.708;20.368;2022-07-23T12:02:51;23.80;40.00
14798;DHT22;7490;63.708;20.368;2022-07-23T12:05:19;23.60;40.10
14798;DHT22;7490;63.708;20.368;2022-07-23T12:07:47;23.40;40.70
14798;DHT22;7490;63.708;20.368;2022-07-23T12:10:20;23.30;41.30
14798;DHT22;7490;63.708;20.368;2022-07-23T12:13:00;23.20;41.50
14798;DHT22;7490;63.708;20.368;2022-07-23T12:15:32;23.10;41.90
14798;DHT22;7490;63.708;20.368;2022-07-23T12:18:00;23.00;42.30
14798;DHT22;7490;63.708;20.368;2022-07-23T12:20:37;23.00;42.70
14798;DHT22;7490;63.708;20.368;2022-07-23T12:23:05;22.90;43.10
14798;DHT22;7490;63.708;20.368;2022-07-23T12:25:37;22.70;43.30
14798;DHT22;7490;63.708;20.368;2022-07-23T12:28:09;22.60;43.90
14798;DHT22;7490;63.708;20.368;2022-07-23T12:30:39;22.50;44.10
14798;DHT22;7490;63.708;20.368;2022-07-23T12:33:07;22.30;44.50
14798;DHT22;7490;63.708;20.368;2022-07-23T12:35:44;22.20;44.90
14798;DHT22;7490;63.708;20.368;2022-07-23T12:38:12;22.10;46.00
14798;DHT22;7490;63.708;20.368;2022-07-23T12:40:44;22.10;46.00
14798;DHT22;7490;63.708;20.368;2022-07-23T12:46:03;22.00;46.50
14798;DHT22;7490;63.708;20.368;2022-07-23T12:48:31;22.00;46.70
14798;DHT22;7490;63.708;20.368;2022-07-23T12:51:07;21.90;47.20
14798;DHT22;7490;63.708;20.368;2022-07-23T12:53:43;22.00;47.80
14798;DHT22;7490;63.708;20.368;2022-07-23T12:56:18;22.00;47.70
14798;DHT22;7490;63.708;20.368;2022-07-23T13:06:24;22.10;48.20
14798;DHT22;7490;63.708;20.368;2022-07-23T13:08:50;22.00;48.30
14798;DHT22;7490;63.708;20.368;2022-07-23T13:11:15;21.90;48.40
14798;DHT22;7490;63.708;20.368;2022-07-23T13:13:41;21.90;48.50
14798;DHT22;7490;63.708;20.368;2022-07-23T13:16:07;21.90;48.50
14798;DHT22;7490;63.708;20.368;2022-07-23T13:18:32;21.80;48.10
14798;DHT22;7490;63.708;20.368;2022-07-23T13:20:59;21.70;48.00
14798;DHT22;7490;63.708;20.368;2022-07-23T13:23:25;21.70;48.20
14798;DHT22;7490;63.708;20.368;2022-07-23T13:25:52;21.70;48.30
14798;DHT22;7490;63.708;20.368;2022-07-23T13:28:19;21.60;48.50
14798;DHT22;7490;63.708;20.368;2022-07-23T13:30:45;21.60;48.80
14798;DHT22;7490;63.708;20.368;2022-07-23T13:33:11;21.60;48.80
14798;DHT22;7490;63.708;20.368;2022-07-23T13:35:37;21.60;48.60
14798;DHT22;7490;63.708;20.368;2022-07-23T13:38:05;21.70;48.80
14798;DHT22;7490;63.708;20.368;2022-07-23T13:40:33;21.70;48.70
14798;DHT22;7490;63.708;20.368;2022-07-23T13:42:59;21.80;48.60
14798;DHT22;7490;63.708;20.368;2022-07-23T13:45:25;21.90;49.10
14798;DHT22;7490;63.708;20.368;2022-07-23T13:47:51;21.90;48.20
14798;DHT22;7490;63.708;20.368;2022-07-23T13:50:16;21.80;48.30
14798;DHT22;7490;63.708;20.368;2022-07-23T13:52:42;21.80;48.40
14798;DHT22;7490;63.708;20.368;2022-07-23T13:55:08;21.80;48.40
14798;DHT22;7490;63.708;20.368;2022-07-23T13:57:34;21.80;48.40
14798;DHT22;7490;63.708;20.368;2022-07-23T14:00:00;21.80;48.50
14798;DHT22;7490;63.708;20.368;2022-07-23T14:02:26;21.80;48.50
14798;DHT22;7490;63.708;20.368;2022-07-23T14:04:52;21.70;48.60
14798;DHT22;7490;63.708;20.368;2022-07-23T14:07:18;21.30;48.50
14798;DHT22;7490;63.708;20.368;2022-07-23T14:09:44;21.70;48.80
14798;DHT22;7490;63.708;20.368;2022-07-23T14:12:09;21.70;49.10
14798;DHT22;7490;63.708;20.368;2022-07-23T14:14:36;21.70;49.20
14798;DHT22;7490;63.708;20.368;2022-07-23T14:17:01;21.70;49.30
14798;DHT22;7490;63.708;20.368;2022-07-23T14:19:28;21.70;49.40
14798;DHT22;7490;63.708;20.368;2022-07-23T14:21:54;21.80;49.70
14798;DHT22;7490;63.708;20.368;2022-07-23T14:24:20;22.00;49.70
14798;DHT22;7490;63.708;20.368;2022-07-23T14:26:46;22.00;49.50
14798;DHT22;7490;63.708;20.368;2022-07-23T14:29:12;22.10;49.50
14798;DHT22;7490;63.708;20.368;2022-07-23T14:31:38;22.10;49.50
14798;DHT22;7490;63.708;20.368;2022-07-23T14:34:03;22.10;49.50
14798;DHT22;7490;63.708;20.368;2022-07-23T14:36:29;22.00;49.50
14798;DHT22;7490;63.708;20.368;2022-07-23T14:38:55;22.00;49.70
14798;DHT22;7490;63.708;20.368;2022-07-23T14:41:20;22.00;49.90
14798;DHT22;7490;63.708;20.368;2022-07-23T14:43:46;22.00;49.90
14798;DHT22;7490;63.708;20.368;2022-07-23T14:46:12;22.00;49.60
14798;DHT22;7490;63.708;20.368;2022-07-23T14:48:38;22.00;49.70
14798;DHT22;7490;63.708;20.368;2022-07-23T14:51:04;21.90;49.70
14798;DHT22;7490;63.708;20.368;2022-07-23T14:53:30;21.80;50.10
14798;DHT22;7490;63.708;20.368;2022-07-23T14:55:56;21.70;50.40
14798;DHT22;7490;63.708;20.368;2022-07-23T14:58:23;21.80;50.50
14798;DHT22;7490;63.708;20.368;2022-07-23T15:00:49;21.80;50.50
14798;DHT22;7490;63.708;20.368;2022-07-23T15:03:15;21.80;50.70
14798;DHT22;7490;63.708;20.368;2022-07-23T15:05:41;21.80;50.60
14798;DHT22;7490;63.708;20.368;2022-07-23T15:08:07;21.80;50.40
14798;DHT22;7490;63.708;20.368;2022-07-23T15:10:33;21.80;50.20
14798;DHT22;7490;63.708;20.368;2022-07-23T15:12:58;21.80;50.10
14798;DHT22;7490;63.708;20.368;2022-07-23T15:15:24;21.80;50.00
14798;DHT22;7490;63.708;20.368;2022-07-23T15:17:50;21.80;50.00
14798;DHT22;7490;63.708;20.368;2022-07-23T15:20:16;21.80;50.00
14798;DHT22;7490;63.708;20.368;2022-07-23T15:22:41;21.80;50.10
14798;DHT22;7490;63.708;20.368;2022-07-23T15:25:08;21.80;50.30
14798;DHT22;7490;63.708;20.368;2022-07-23T15:27:33;21.80;50.60
14798;DHT22;7490;63.708;20.368;2022-07-23T15:29:59;21.80;50.70
14798;DHT22;7490;63.708;20.368;2022-07-23T15:32:25;21.80;50.60
14798;DHT22;7490;63.708;20.368;2022-07-23T15:34:53;21.80;50.80
14798;DHT22;7490;63.708;20.368;2022-07-23T15:37:18;21.80;50.80
14798;DHT22;7490;63.708;20.368;2022-07-23T15:39:44;21.80;51.00
14798;DHT22;7490;63.708;20.368;2022-07-23T15:42:10;21.70;51.10
14798;DHT22;7490;63.708;20.368;2022-07-23T15:44:35;21.70;51.30
14798;DHT22;7490;63.708;20.368;2022-07-23T15:47:01;21.70;51.20
14798;DHT22;7490;63.708;20.368;2022-07-23T15:49:27;21.60;51.00
14798;DHT22;7490;63.708;20.368;2022-07-23T15:51:54;21.60;51.00
14798;DHT22;7490;63.708;20.368;2022-07-23T15:54:20;21.60;51.20
14798;DHT22;7490;63.708;20.368;2022-07-23T15:56:46;21.50;51.10
14798;DHT22;7490;63.708;20.368;2022-07-23T15:59:12;21.50;51.00
14798;DHT22;7490;63.708;20.368;2022-07-23T16:01:38;21.40;51.60
14798;DHT22;7490;63.708;20.368;2022-07-23T16:04:04;21.40;51.10
14798;DHT22;7490;63.708;20.368;2022-07-23T16:06:32;21.30;51.00
14798;DHT22;7490;63.708;20.368;2022-07-23T16:08:58;21.30;51.10
14798;DHT22;7490;63.708;20.368;2022-07-23T16:11:25;21.20;50.90
14798;DHT22;7490;63.708;20.368;2022-07-23T16:13:51;21.20;51.10
14798;DHT22;7490;63.708;20.368;2022-07-23T16:16:17;21.20;51.30
14798;DHT22;7490;63.708;20.368;2022-07-23T16:18:43;21.20;51.50
14798;DHT22;7490;63.708;20.368;2022-07-23T16:21:10;21.10;51.70
14798;DHT22;7490;63.708;20.368;2022-07-23T16:23:35;21.20;51.80
14798;DHT22;7490;63.708;20.368;2022-07-23T16:26:01;21.20;51.50